Time;durP1;ratioP1;P1;durP2;ratioP2;P2;SDS_P1;SDS_P2;PMS_P1;PMS_P2;Temp;Humidity;BMP_temperature;BMP_pressure;BME280_temperature;BME280_humidity;BME280_pressure;Samples;Min_cycle;Max_cycle;Signal;HPM_P1;HPM_P2
2022/12/10 00:01:43;;;;;;;126.63;42.53;;;-0.50;99.90;;;;;;5073616;28;20024;-74
2022/12/10 00:04:10;;;;;;;127.32;43.60;;;-0.50;99.90;;;;;;5072377;28;20103;-75
2022/12/10 00:06:37;;;;;;;134.45;43.17;;;-0.60;99.90;;;;;;5071846;28;20020;-74
2022/12/10 00:09:05;;;;;;;107.28;40.72;;;-0.60;99.90;;;;;;5073130;28;20114;-74
2022/12/10 00:11:31;;;;;;;222.38;43.63;;;-0.50;99.90;;;;;;5072552;28;20059;-75
2022/12/10 00:13:57;;;;;;;142.30;41.80;;;-0.50;99.90;;;;;;5071327;28;20025;-75
2022/12/10 00:16:25;;;;;;;186.25;45.50;;;-0.70;99.90;;;;;;5073144;28;20033;-74
2022/12/10 00:18:52;;;;;;;177.20;46.97;;;-0.70;99.90;;;;;;5073187;28;20036;-74
2022/12/10 00:21:28;;;;;;;121.40;46.20;;;-0.80;99.90;;;;;;5072937;28;20032;-75
2022/12/10 00:23:55;;;;;;;164.60;42.25;;;-0.60;99.90;;;;;;5071939;28;20365;-74
2022/12/10 00:26:22;;;;;;;205.15;47.30;;;-0.60;99.90;;;;;;5071948;28;20047;-73
2022/12/10 00:28:48;;;;;;;210.68;45.38;;;-0.70;99.90;;;;;;5072093;28;20453;-74
2022/12/10 00:31:17;;;;;;;229.30;49.00;;;-0.80;99.90;;;;;;5073046;28;20029;-71
2022/12/10 00:33:44;;;;;;;284.05;45.80;;;-0.90;99.90;;;;;;5073294;28;20036;-71
2022/12/10 00:36:15;;;;;;;384.05;50.15;;;-0.90;99.90;;;;;;5071163;28;20393;-72
2022/12/10 00:38:42;;;;;;;271.05;45.88;;;-0.90;99.90;;;;;;5071899;28;20051;-71
2022/12/10 00:41:09;;;;;;;324.30;47.97;;;-1.00;99.90;;;;;;5072771;28;20067;-72
2022/12/10 00:43:35;;;;;;;295.67;48.00;;;-0.90;99.90;;;;;;5071773;28;20054;-71
2022/12/10 00:46:01;;;;;;;314.67;50.17;;;-0.90;99.90;;;;;;5072613;28;20476;-74
2022/12/10 00:48:27;;;;;;;248.82;52.90;;;-0.70;99.90;;;;;;5071579;28;20070;-75
2022/12/10 00:51:26;;;;;;;221.25;50.25;;;-0.60;99.90;;;;;;5072412;28;20040;-75
2022/12/10 00:53:54;;;;;;;384.92;53.78;;;-0.60;99.90;;;;;;5067618;28;20036;-75
2022/12/10 00:56:22;;;;;;;259.00;48.13;;;-0.70;99.90;;;;;;5072675;28;20035;-72
2022/12/10 00:58:49;;;;;;;315.67;52.35;;;-0.80;99.90;;;;;;5072808;28;20027;-75
2022/12/10 01:01:20;;;;;;;272.33;50.65;;;-0.90;99.90;;;;;;5071370;28;20040;-75
2022/12/10 01:03:48;;;;;;;328.92;48.63;;;-0.90;99.90;;;;;;5072336;28;20051;-75
2022/12/10 01:06:22;;;;;;;193.90;46.70;;;-0.80;99.90;;;;;;5072605;28;20507;-75
2022/12/10 01:08:50;;;;;;;290.13;46.90;;;-0.90;99.90;;;;;;5071333;28;20127;-75
2022/12/10 01:11:19;;;;;;;357.73;50.97;;;-0.90;99.90;;;;;;5071276;28;20048;-74
2022/12/10 01:13:46;;;;;;;214.68;48.38;;;-0.90;99.90;;;;;;5072718;28;20056;-75
2022/12/10 01:16:14;;;;;;;423.60;53.10;;;-0.90;99.90;;;;;;5072405;28;20048;-75
2022/12/10 01:18:41;;;;;;;317.67;55.50;;;-0.70;99.90;;;;;;5072097;28;20024;-74
2022/12/10 01:21:09;;;;;;;216.75;53.40;;;-0.70;99.90;;;;;;5072694;28;20025;-74
2022/12/10 01:23:37;;;;;;;195.68;48.65;;;-0.70;99.90;;;;;;5074913;28;20024;-75
2022/12/10 01:26:09;;;;;;;242.43;54.03;;;-0.80;99.90;;;;;;5058645;28;20492;-75
2022/12/10 01:28:38;;;;;;;298.58;54.80;;;-0.90;99.90;;;;;;5076647;28;20032;-75
2022/12/10 01:31:06;;;;;;;261.08;52.85;;;-0.70;99.90;;;;;;5075062;28;20102;-74
2022/12/10 01:33:33;;;;;;;208.10;51.33;;;-0.60;99.90;;;;;;5074976;28;20021;-75
2022/12/10 01:36:07;;;;;;;260.55;56.17;;;-0.70;99.90;;;;;;5073498;28;20024;-74
2022/12/10 01:38:33;;;;;;;217.85;49.58;;;-0.50;99.90;;;;;;5075517;28;20036;-75
2022/12/10 01:41:00;;;;;;;184.82;38.63;;;-0.30;99.90;;;;;;5074594;28;20039;-75
2022/12/10 01:43:27;;;;;;;281.98;52.13;;;-0.60;99.90;;;;;;5075790;28;20020;-75
2022/12/10 01:45:53;;;;;;;207.38;47.60;;;-0.40;99.90;;;;;;5074538;28;20090;-73
2022/12/10 01:48:19;;;;;;;188.32;50.75;;;-0.30;99.90;;;;;;5075694;28;20029;-75
2022/12/10 01:50:45;;;;;;;178.38;50.55;;;-0.30;99.90;;;;;;5074714;28;20366;-75
2022/12/10 01:53:13;;;;;;;234.20;53.30;;;-0.50;99.90;;;;;;5075814;28;20021;-73
2022/12/10 01:55:49;;;;;;;197.43;49.28;;;-0.50;99.90;;;;;;5076041;28;20469;-75
2022/12/10 01:58:18;;;;;;;207.50;50.20;;;-0.70;99.90;;;;;;5074620;28;20130;-75
2022/12/10 02:01:06;;;;;;;221.13;51.42;;;-0.70;99.90;;;;;;5075661;28;20078;-75
2022/12/10 02:03:57;;;;;;;189.30;50.50;;;-0.60;99.90;;;;;;5058687;28;20490;-75
2022/12/10 02:06:45;;;;;;;176.45;49.78;;;-0.50;99.90;;;;;;5072803;28;20131;-75
2022/12/10 02:09:16;;;;;;;185.25;48.35;;;-0.20;99.90;;;;;;5074121;28;20020;-75
2022/12/10 02:12:27;;;;;;;254.70;45.97;;;-0.30;99.90;;;;;;5074228;28;20045;-75
2022/12/10 02:15:22;;;;;;;298.90;53.25;;;-0.80;99.90;;;;;;5073850;28;20109;-74
2022/12/10 02:17:58;;;;;;;226.40;42.90;;;-0.70;99.90;;;;;;5064769;28;20040;-74
2022/12/10 02:20:33;;;;;;;304.73;55.53;;;-0.60;99.90;;;;;;5074137;28;20047;-74
2022/12/10 02:23:04;;;;;;;324.67;58.70;;;-0.60;99.90;;;;;;5074161;28;20036;-74
2022/12/10 02:25:57;;;;;;;274.58;51.28;;;-0.40;99.90;;;;;;5074234;28;20021;-74
2022/12/10 02:28:42;;;;;;;213.85;46.58;;;-0.40;99.90;;;;;;5073818;28;20115;-75
2022/12/10 02:31:13;;;;;;;178.05;46.83;;;-0.60;99.90;;;;;;5073808;28;20040;-76
2022/12/10 02:33:43;;;;;;;188.70;44.55;;;-0.40;99.90;;;;;;5073932;28;20089;-75
2022/12/10 02:36:11;;;;;;;168.77;50.70;;;-0.60;99.90;;;;;;5075115;28;20071;-76
2022/12/10 02:38:40;;;;;;;181.23;47.75;;;-0.60;99.90;;;;;;5057292;28;20052;-75
2022/12/10 02:41:18;;;;;;;150.25;44.78;;;-0.60;99.90;;;;;;5073840;28;20111;-75
2022/12/10 02:43:47;;;;;;;140.02;41.88;;;-0.70;99.90;;;;;;5073623;28;20028;-75
2022/12/10 02:46:13;;;;;;;241.00;49.20;;;-0.80;99.90;;;;;;5073291;28;20029;-75
2022/12/10 02:48:40;;;;;;;281.75;50.67;;;-0.70;99.90;;;;;;5073754;28;20392;-75
2022/12/10 02:51:07;;;;;;;174.88;45.88;;;-0.60;99.90;;;;;;5073559;28;20162;-76
2022/12/10 02:53:40;;;;;;;196.00;52.03;;;-0.40;99.90;;;;;;5080003;28;20101;-75
2022/12/10 02:56:15;;;;;;;238.73;52.00;;;-0.30;99.90;;;;;;5073409;28;20020;-75
2022/12/10 02:59:04;;;;;;;262.67;52.97;;;-0.40;99.90;;;;;;5073742;28;20028;-76
2022/12/10 03:01:51;;;;;;;210.05;55.10;;;-0.30;99.90;;;;;;5057593;28;20029;-75
2022/12/10 03:04:29;;;;;;;195.73;51.35;;;-0.30;99.90;;;;;;5070904;28;20059;-76
2022/12/10 03:07:02;;;;;;;144.00;46.40;;;-0.10;99.90;;;;;;5075512;28;20036;-72
2022/12/10 03:09:37;;;;;;;134.15;40.22;;;-0.30;99.90;;;;;;5074655;28;20469;-75
2022/12/10 03:12:10;;;;;;;130.63;45.10;;;-0.40;99.90;;;;;;5074872;28;20052;-75
2022/12/10 03:14:37;;;;;;;199.93;47.28;;;-0.40;99.90;;;;;;5074062;28;20166;-75
2022/12/10 03:17:05;;;;;;;175.75;50.78;;;-0.40;99.90;;;;;;5074668;28;20082;-75
2022/12/10 03:19:42;;;;;;;177.35;51.20;;;-0.20;99.90;;;;;;5074349;28;20036;-75
2022/12/10 03:22:11;;;;;;;151.25;48.97;;;-0.30;99.90;;;;;;5073305;28;20476;-75
2022/12/10 03:24:39;;;;;;;292.20;58.03;;;-0.10;99.90;;;;;;5074072;28;20033;-75
2022/12/10 03:27:06;;;;;;;269.80;51.55;;;0.00;99.90;;;;;;5073134;28;20374;-75
2022/12/10 03:29:41;;;;;;;208.43;47.95;;;0.00;99.90;;;;;;5073913;28;20031;-73
2022/12/10 03:32:07;;;;;;;217.45;49.95;;;0.00;99.90;;;;;;5074273;28;20074;-75
2022/12/10 03:34:35;;;;;;;236.30;52.78;;;-0.10;99.90;;;;;;5072733;28;20834;-75
2022/12/10 03:37:01;;;;;;;272.42;53.92;;;0.10;99.90;;;;;;5074121;28;20028;-75
2022/12/10 03:39:27;;;;;;;179.13;43.05;;;0.20;99.90;;;;;;5074021;28;20036;-75
2022/12/10 03:41:54;;;;;;;322.55;48.90;;;-0.30;99.90;;;;;;5073908;28;20107;-75
2022/12/10 03:44:33;;;;;;;365.40;57.15;;;-0.40;99.90;;;;;;5073675;28;20056;-75
2022/12/10 03:47:00;;;;;;;217.18;47.60;;;-0.50;99.90;;;;;;5073463;28;20035;-75
2022/12/10 03:49:26;;;;;;;209.02;46.78;;;-0.40;99.90;;;;;;5073939;28;20082;-75
2022/12/10 03:51:51;;;;;;;334.38;55.15;;;-0.60;99.90;;;;;;5073957;28;20029;-75
2022/12/10 03:54:18;;;;;;;157.15;46.35;;;-0.50;99.90;;;;;;5073641;28;20437;-75
2022/12/10 03:56:44;;;;;;;339.08;52.33;;;-0.40;99.90;;;;;;5073820;28;20465;-75
2022/12/10 03:59:10;;;;;;;155.00;43.80;;;-0.60;99.90;;;;;;5073277;28;20025;-75
2022/12/10 04:01:36;;;;;;;220.00;39.28;;;-0.60;99.90;;;;;;5073689;28;20052;-75
2022/12/10 04:04:03;;;;;;;425.23;56.22;;;-0.70;99.90;;;;;;5073741;28;20562;-74
2022/12/10 04:06:29;;;;;;;198.10;41.83;;;-0.50;99.90;;;;;;5073591;28;20066;-75
2022/12/10 04:08:54;;;;;;;281.48;46.88;;;-0.40;99.90;;;;;;5073662;28;20417;-75
2022/12/10 04:11:20;;;;;;;305.75;48.38;;;-0.80;99.90;;;;;;5073188;28;20618;-73
2022/12/10 04:16:32;;;;;;;196.95;45.88;;;-0.90;99.90;;;;;;5071741;28;20427;-75
2022/12/10 04:19:03;;;;;;;267.85;48.00;;;-0.50;99.90;;;;;;5073652;28;20062;-75
2022/12/10 04:27:05;;;;;;;218.30;43.65;;;-0.80;99.90;;;;;;5060224;28;20062;-75
2022/12/10 04:29:31;;;;;;;212.32;44.53;;;-0.70;99.90;;;;;;5073095;28;20028;-75
2022/12/10 04:31:58;;;;;;;300.38;48.50;;;-0.80;99.90;;;;;;5072946;28;20499;-75
2022/12/10 04:34:24;;;;;;;293.80;46.50;;;-0.60;99.90;;;;;;5072892;28;20025;-73
2022/12/10 04:36:50;;;;;;;413.27;50.40;;;-0.80;99.90;;;;;;5072736;28;20039;-74
2022/12/10 04:39:17;;;;;;;245.35;46.03;;;-0.80;99.90;;;;;;5071618;28;20028;-75
2022/12/10 04:41:44;;;;;;;307.92;46.72;;;-0.60;99.90;;;;;;5072330;28;20045;-75
2022/12/10 04:44:11;;;;;;;206.30;43.20;;;-0.60;99.90;;;;;;5071469;28;20029;-75
2022/12/10 04:46:37;;;;;;;421.45;54.78;;;-0.60;99.90;;;;;;5071199;28;20036;-74
2022/12/10 04:49:04;;;;;;;293.85;49.03;;;-0.50;99.90;;;;;;5072959;28;20436;-74
2022/12/10 04:51:30;;;;;;;319.90;48.22;;;-0.80;99.90;;;;;;5071521;28;20068;-74
2022/12/10 04:53:56;;;;;;;275.58;46.65;;;-0.60;99.90;;;;;;5072482;28;20499;-75
2022/12/10 04:56:22;;;;;;;361.77;58.17;;;-0.60;99.90;;;;;;5072232;28;20028;-74
2022/12/10 04:58:48;;;;;;;266.70;45.85;;;-0.50;99.90;;;;;;5071952;28;20020;-75
2022/12/10 05:01:14;;;;;;;247.27;46.35;;;-0.60;99.90;;;;;;5072361;28;20028;-74
2022/12/10 05:03:40;;;;;;;272.42;49.95;;;-0.50;99.90;;;;;;5072652;28;20074;-74
2022/12/10 05:06:08;;;;;;;203.52;42.13;;;-0.50;99.90;;;;;;5072752;28;20017;-75
2022/12/10 05:08:36;;;;;;;130.63;28.92;;;-0.60;99.90;;;;;;5073492;28;20021;-75
2022/12/10 05:11:08;;;;;;;91.55;24.60;;;-0.70;99.90;;;;;;5072069;28;20036;-74
2022/12/10 05:13:35;;;;;;;220.68;40.97;;;-0.90;99.90;;;;;;5072720;28;20035;-74
2022/12/10 05:16:02;;;;;;;436.02;53.38;;;-1.00;99.90;;;;;;5074077;28;20025;-74
2022/12/10 05:18:28;;;;;;;322.38;46.25;;;-0.90;99.90;;;;;;5074006;28;20119;-75
2022/12/10 05:20:54;;;;;;;236.77;43.13;;;-0.70;99.90;;;;;;5073291;28;20060;-74
2022/12/10 05:23:29;;;;;;;159.77;39.00;;;-0.50;99.90;;;;;;5072879;28;20031;-75
2022/12/10 05:26:07;;;;;;;260.42;39.97;;;-0.70;99.90;;;;;;5071112;28;20047;-74
2022/12/10 05:28:39;;;;;;;216.75;42.03;;;-0.70;99.90;;;;;;5072445;28;20024;-75
2022/12/10 05:31:05;;;;;;;272.58;43.80;;;-0.70;99.90;;;;;;5072486;28;20029;-74
2022/12/10 05:33:31;;;;;;;274.23;46.88;;;-0.80;99.90;;;;;;5071925;28;20032;-74
2022/12/10 05:36:00;;;;;;;183.35;45.90;;;-0.50;99.90;;;;;;5072222;28;20032;-75
2022/12/10 05:38:27;;;;;;;273.98;50.80;;;-0.40;99.90;;;;;;5072156;28;20028;-75
2022/12/10 05:40:53;;;;;;;269.95;50.20;;;-0.50;99.90;;;;;;5073729;28;20032;-75
2022/12/10 05:43:19;;;;;;;224.20;44.88;;;-0.40;99.90;;;;;;5072438;28;20027;-72
2022/12/10 05:45:45;;;;;;;223.00;44.13;;;-0.50;99.90;;;;;;5071928;28;20033;-74
2022/12/10 05:48:12;;;;;;;323.80;51.97;;;-0.50;99.90;;;;;;5072456;28;20029;-75
2022/12/10 05:50:39;;;;;;;301.17;54.30;;;-0.20;99.90;;;;;;5070792;28;20473;-74
2022/12/10 05:53:05;;;;;;;307.95;48.55;;;-0.40;99.90;;;;;;5072255;28;20033;-72
2022/12/10 05:55:32;;;;;;;354.35;54.42;;;-0.50;99.90;;;;;;5071811;28;20164;-72
2022/12/10 05:57:59;;;;;;;233.00;47.63;;;-0.60;99.90;;;;;;5072354;28;20111;-74
2022/12/10 06:00:26;;;;;;;1313.20;136.20;;;-0.40;99.90;;;;;;5071101;28;20104;-74
2022/12/10 06:02:52;;;;;;;326.25;51.85;;;-0.60;99.90;;;;;;5072174;28;20052;-74
2022/12/10 06:05:18;;;;;;;334.38;50.10;;;-0.50;99.90;;;;;;5070980;28;20035;-74
2022/12/10 06:07:44;;;;;;;1089.93;112.70;;;-0.50;99.90;;;;;;5070625;28;20103;-73
2022/12/10 06:10:10;;;;;;;302.60;53.90;;;-0.40;99.90;;;;;;5074801;28;20112;-74
2022/12/10 06:12:37;;;;;;;382.08;57.33;;;-0.40;99.90;;;;;;5074298;28;20143;-74
2022/12/10 06:15:04;;;;;;;255.75;46.90;;;-0.30;99.90;;;;;;5075900;28;20036;-74
2022/12/10 06:17:29;;;;;;;223.45;43.40;;;-0.30;99.90;;;;;;5075225;28;20035;-74
2022/12/10 06:19:55;;;;;;;264.52;47.83;;;-0.50;99.90;;;;;;5075450;28;20021;-74
2022/12/10 06:22:21;;;;;;;320.05;51.80;;;-0.50;99.90;;;;;;5075387;28;20032;-74
2022/12/10 06:24:46;;;;;;;357.90;51.28;;;-0.50;99.90;;;;;;5075494;28;20063;-74
2022/12/10 06:27:12;;;;;;;255.48;43.97;;;-0.40;99.90;;;;;;5075695;28;20040;-74
2022/12/10 06:29:38;;;;;;;324.02;56.80;;;-0.70;99.90;;;;;;5074674;28;20017;-74
2022/12/10 06:32:04;;;;;;;220.55;44.20;;;-0.60;99.90;;;;;;5074109;28;20041;-73
2022/12/10 06:34:29;;;;;;;210.70;47.17;;;-0.60;99.90;;;;;;5060510;28;20111;-74
2022/12/10 06:36:55;;;;;;;268.90;45.45;;;-0.60;99.90;;;;;;5072465;28;20500;-74
2022/12/10 06:39:21;;;;;;;286.38;54.50;;;-0.60;99.90;;;;;;5070797;28;20023;-74
2022/12/10 06:41:47;;;;;;;239.20;47.38;;;-0.50;99.90;;;;;;5073501;28;20021;-73
2022/12/10 06:44:13;;;;;;;366.77;52.78;;;-0.60;99.90;;;;;;5074000;28;20025;-73
2022/12/10 06:46:40;;;;;;;318.08;49.33;;;-0.60;99.90;;;;;;5074138;28;20085;-74
2022/12/10 06:49:07;;;;;;;236.55;49.25;;;-0.60;99.90;;;;;;5074012;28;20536;-74
2022/12/10 06:51:33;;;;;;;310.52;55.75;;;-0.50;99.90;;;;;;5074150;28;20054;-74
2022/12/10 06:53:59;;;;;;;319.33;48.08;;;-0.40;99.90;;;;;;5072563;28;20036;-73
2022/12/10 06:56:25;;;;;;;349.45;56.80;;;-0.30;99.90;;;;;;5070896;28;20020;-74
2022/12/10 06:58:52;;;;;;;318.05;52.65;;;-0.50;99.90;;;;;;5070865;28;20452;-75
2022/12/10 07:01:21;;;;;;;210.43;46.70;;;-0.50;99.90;;;;;;5073536;28;20031;-73
2022/12/10 07:03:52;;;;;;;274.50;48.67;;;-0.30;99.90;;;;;;5071117;28;20029;-73
2022/12/10 07:06:19;;;;;;;199.57;45.25;;;-0.50;99.90;;;;;;5072737;28;20100;-73
2022/12/10 07:08:45;;;;;;;221.02;47.10;;;-0.80;99.90;;;;;;5069593;28;20376;-74
2022/12/10 07:11:13;;;;;;;150.55;39.67;;;-0.60;99.90;;;;;;5072501;28;20423;-73
2022/12/10 07:13:40;;;;;;;177.50;44.38;;;-0.60;99.90;;;;;;5069231;28;20094;-73
2022/12/10 07:16:14;;;;;;;163.02;43.53;;;-0.60;99.90;;;;;;5067012;28;20025;-73
2022/12/10 07:18:40;;;;;;;314.40;53.53;;;-0.90;99.90;;;;;;5068844;28;20040;-73
2022/12/10 07:21:17;;;;;;;251.32;45.92;;;-0.50;99.90;;;;;;5071581;28;20358;-71
2022/12/10 07:23:43;;;;;;;172.57;41.65;;;-0.50;99.90;;;;;;5061290;28;20079;-75
2022/12/10 07:26:09;;;;;;;239.20;44.13;;;-0.70;99.90;;;;;;5071711;28;20017;-74
2022/12/10 07:28:35;;;;;;;142.77;37.35;;;-0.60;99.90;;;;;;5072092;28;20125;-74
2022/12/10 07:31:02;;;;;;;174.02;41.08;;;-0.80;99.90;;;;;;5069378;28;20071;-73
2022/12/10 07:33:28;;;;;;;153.52;44.35;;;-0.90;99.90;;;;;;5069753;28;20032;-71
2022/12/10 07:35:53;;;;;;;142.82;36.70;;;-0.70;99.90;;;;;;5070373;28;20025;-74
2022/12/10 07:38:19;;;;;;;141.85;34.38;;;-0.80;99.90;;;;;;5072405;28;20027;-73
2022/12/10 07:40:45;;;;;;;218.65;44.28;;;-0.70;99.90;;;;;;5073655;28;20036;-73
2022/12/10 07:43:11;;;;;;;268.05;46.42;;;-0.70;99.90;;;;;;5067477;28;20042;-73
2022/12/10 07:45:37;;;;;;;262.45;46.22;;;-0.70;99.90;;;;;;5072715;28;20032;-73
2022/12/10 07:48:03;;;;;;;299.80;50.80;;;-0.70;99.90;;;;;;5054922;28;20092;-74
2022/12/10 07:50:29;;;;;;;166.93;38.92;;;-0.50;99.90;;;;;;5072717;28;20107;-74
2022/12/10 07:52:54;;;;;;;235.10;43.53;;;-0.70;99.90;;;;;;5073208;28;20190;-73
2022/12/10 07:55:20;;;;;;;303.55;48.72;;;-0.70;99.90;;;;;;5073431;28;20467;-73
2022/12/10 07:57:46;;;;;;;230.10;43.13;;;-0.90;99.90;;;;;;5073247;28;20103;-74
2022/12/10 08:00:12;;;;;;;159.82;40.97;;;-0.80;99.90;;;;;;5071949;28;20024;-73
2022/12/10 08:02:38;;;;;;;228.82;42.28;;;-0.70;99.90;;;;;;5073733;28;20073;-74
2022/12/10 08:05:04;;;;;;;233.60;44.28;;;-0.80;99.90;;;;;;5073083;28;20505;-73
2022/12/10 08:07:30;;;;;;;237.80;44.88;;;-0.70;99.90;;;;;;5072645;28;20016;-73
2022/12/10 08:09:55;;;;;;;305.17;43.80;;;-0.40;99.90;;;;;;5073291;28;20092;-73
2022/12/10 08:12:21;;;;;;;192.98;41.67;;;-0.30;99.90;;;;;;5072781;28;20497;-73
2022/12/10 08:14:47;;;;;;;228.80;47.53;;;-0.50;99.90;;;;;;5072942;28;20081;-73
2022/12/10 08:17:12;;;;;;;143.07;35.25;;;-0.40;99.90;;;;;;5073591;28;20028;-71
2022/12/10 08:19:38;;;;;;;273.40;45.80;;;-0.30;99.90;;;;;;5072936;28;20025;-70
2022/12/10 08:22:04;;;;;;;224.45;40.50;;;-0.50;99.90;;;;;;5052933;28;20028;-70
2022/12/10 08:24:30;;;;;;;249.55;45.05;;;-0.60;99.90;;;;;;5067122;28;20027;-70
2022/12/10 08:26:56;;;;;;;241.93;43.83;;;-0.60;99.90;;;;;;5072299;28;20028;-71
2022/12/10 08:29:22;;;;;;;197.82;39.55;;;-0.40;99.90;;;;;;5071908;28;20099;-71
2022/12/10 08:31:48;;;;;;;156.55;40.30;;;-0.50;99.90;;;;;;5071358;28;20123;-70
2022/12/10 08:34:16;;;;;;;237.93;41.25;;;-0.30;99.90;;;;;;5072102;28;20493;-71
2022/12/10 08:36:43;;;;;;;189.50;44.63;;;-0.30;99.90;;;;;;5072000;28;20134;-70
2022/12/10 08:39:10;;;;;;;156.60;41.10;;;-0.30;99.90;;;;;;5072081;28;20016;-71
2022/12/10 08:41:36;;;;;;;269.33;43.50;;;-0.40;99.90;;;;;;5066972;28;20438;-70
2022/12/10 08:44:02;;;;;;;471.17;52.65;;;-0.20;99.90;;;;;;5069189;28;20472;-73
2022/12/10 08:46:28;;;;;;;187.02;40.10;;;-0.30;99.90;;;;;;5072017;28;20025;-73
2022/12/10 08:48:54;;;;;;;361.95;45.25;;;-0.30;99.90;;;;;;5071676;28;20024;-73
2022/12/10 08:51:21;;;;;;;235.80;36.15;;;-0.30;99.90;;;;;;5070320;28;20032;-73
2022/12/10 08:53:47;;;;;;;166.75;30.52;;;-0.50;99.90;;;;;;5071815;28;20021;-74
2022/12/10 08:56:13;;;;;;;311.17;45.75;;;-0.60;99.90;;;;;;5071707;28;20391;-73
2022/12/10 08:58:39;;;;;;;175.63;38.95;;;-0.40;99.90;;;;;;5072157;28;20027;-73
2022/12/10 09:01:11;;;;;;;203.48;34.95;;;-0.30;99.90;;;;;;5071782;28;20142;-74
2022/12/10 09:03:37;;;;;;;143.98;37.58;;;-0.40;99.90;;;;;;5070806;28;20821;-73
2022/12/10 09:06:09;;;;;;;276.90;44.10;;;-0.40;99.90;;;;;;5071015;28;20039;-73
2022/12/10 09:08:35;;;;;;;175.23;41.42;;;-0.30;99.90;;;;;;5071791;28;20025;-73
2022/12/10 09:11:17;;;;;;;214.75;36.40;;;-0.10;99.90;;;;;;5071055;28;20035;-73
2022/12/10 09:13:43;;;;;;;225.75;40.38;;;-0.10;99.90;;;;;;5071079;28;20045;-74
2022/12/10 09:16:09;;;;;;;194.38;39.85;;;-0.10;99.90;;;;;;5070318;28;20096;-72
2022/12/10 09:18:35;;;;;;;168.65;39.47;;;-0.20;99.90;;;;;;5071183;28;20055;-72
2022/12/10 09:21:07;;;;;;;274.48;35.03;;;-0.10;99.90;;;;;;5064966;28;20035;-73
2022/12/10 09:23:33;;;;;;;215.57;39.35;;;0.00;99.90;;;;;;5066914;28;20036;-72
2022/12/10 09:26:01;;;;;;;171.90;32.53;;;-0.10;99.90;;;;;;5071149;28;20016;-71
2022/12/10 09:28:27;;;;;;;163.68;34.40;;;-0.30;99.90;;;;;;5066792;28;20028;-71
2022/12/10 09:30:57;;;;;;;204.80;39.47;;;-0.20;99.90;;;;;;5070663;28;20028;-72
2022/12/10 09:33:23;;;;;;;118.60;26.67;;;-0.10;99.90;;;;;;5071141;28;20070;-72
2022/12/10 09:35:48;;;;;;;106.88;27.90;;;-0.40;99.90;;;;;;5070877;28;20477;-72
2022/12/10 09:38:14;;;;;;;143.02;33.40;;;-0.40;99.90;;;;;;5069988;28;20044;-71
2022/12/10 09:41:25;;;;;;;171.80;35.80;;;-0.50;99.90;;;;;;5069076;28;20421;-71
2022/12/10 09:44:29;;;;;;;151.13;30.05;;;-0.20;99.90;;;;;;5060860;28;20040;-69
2022/12/10 09:46:58;;;;;;;212.60;36.35;;;-0.40;99.90;;;;;;5073240;28;20041;-71
2022/12/10 09:49:35;;;;;;;165.05;34.28;;;-0.40;99.90;;;;;;5074313;28;20403;-71
2022/12/10 09:52:05;;;;;;;102.00;31.17;;;-0.20;99.90;;;;;;5075672;28;20496;-71
2022/12/10 09:54:38;;;;;;;124.72;33.33;;;-0.30;99.90;;;;;;5075513;28;20052;-71
2022/12/10 09:57:06;;;;;;;102.35;29.05;;;-0.30;99.90;;;;;;5075374;28;20064;-72
2022/12/10 09:59:41;;;;;;;133.00;33.55;;;-0.20;99.90;;;;;;5075757;28;20025;-72
2022/12/10 10:02:28;;;;;;;98.75;32.72;;;-0.20;99.90;;;;;;5074240;28;20064;-72
2022/12/10 10:05:07;;;;;;;160.20;37.28;;;-0.10;99.90;;;;;;5063029;28;20024;-71
2022/12/10 10:07:41;;;;;;;220.48;37.97;;;-0.10;99.90;;;;;;5075832;28;20495;-73
2022/12/10 10:10:21;;;;;;;122.38;33.15;;;-0.10;99.90;;;;;;5075165;28;20093;-73
2022/12/10 10:12:49;;;;;;;106.07;33.17;;;0.10;99.90;;;;;;5071573;28;20033;-74
2022/12/10 10:15:20;;;;;;;128.32;32.17;;;0.00;99.90;;;;;;5066970;28;20481;-74
2022/12/10 10:17:49;;;;;;;159.88;35.42;;;0.00;99.90;;;;;;5075613;28;20043;-73
2022/12/10 10:20:15;;;;;;;141.90;33.85;;;0.20;99.90;;;;;;5057728;28;20380;-74
2022/12/10 10:22:42;;;;;;;113.32;32.97;;;0.10;99.90;;;;;;5075567;28;20078;-73
2022/12/10 10:25:16;;;;;;;110.03;33.58;;;0.00;99.90;;;;;;5075540;28;20024;-74
2022/12/10 10:27:42;;;;;;;105.10;28.92;;;0.10;99.90;;;;;;5075922;28;20373;-74
2022/12/10 10:30:16;;;;;;;135.35;32.35;;;0.00;99.90;;;;;;5073583;28;20020;-73
2022/12/10 10:32:42;;;;;;;120.82;33.80;;;0.00;99.90;;;;;;5075617;28;20040;-73
2022/12/10 10:35:23;;;;;;;117.32;28.38;;;0.00;99.90;;;;;;5057247;28;20013;-73
2022/12/10 10:37:51;;;;;;;110.22;32.47;;;0.00;99.90;;;;;;5075324;28;20067;-73
2022/12/10 10:40:40;;;;;;;157.10;35.67;;;0.20;99.90;;;;;;5075495;28;20078;-73
2022/12/10 10:43:06;;;;;;;103.28;27.50;;;0.10;99.90;;;;;;5075439;28;20067;-73
2022/12/10 10:45:38;;;;;;;119.35;33.97;;;0.00;99.90;;;;;;5074531;28;20035;-73
2022/12/10 10:48:06;;;;;;;113.63;34.08;;;0.10;99.90;;;;;;5074039;28;20094;-73
2022/12/10 10:50:44;;;;;;;116.90;29.23;;;0.20;99.90;;;;;;5074808;28;20028;-73
2022/12/10 10:53:30;;;;;;;113.10;34.10;;;0.20;99.90;;;;;;5075143;28;20393;-73
2022/12/10 10:56:21;;;;;;;128.18;32.70;;;0.20;99.90;;;;;;5072068;28;20017;-73
2022/12/10 10:59:03;;;;;;;124.03;33.83;;;0.40;99.90;;;;;;5073320;28;20056;-73
2022/12/10 11:01:49;;;;;;;136.63;34.13;;;0.50;99.90;;;;;;5057646;28;20033;-73
2022/12/10 11:04:17;;;;;;;119.97;31.17;;;0.50;99.90;;;;;;5071456;28;20040;-71
2022/12/10 11:06:44;;;;;;;128.73;33.20;;;0.60;99.90;;;;;;5071808;28;20099;-71
2022/12/10 11:09:20;;;;;;;123.60;34.35;;;0.70;99.90;;;;;;5072872;28;20393;-73
2022/12/10 11:12:13;;;;;;;98.18;33.60;;;0.80;99.90;;;;;;5062498;28;20040;-74
2022/12/10 11:14:43;;;;;;;108.53;33.20;;;0.80;99.90;;;;;;5071621;28;20116;-74
2022/12/10 11:17:09;;;;;;;128.25;34.95;;;0.80;99.90;;;;;;5074493;28;20112;-74
2022/12/10 11:19:34;;;;;;;154.60;36.83;;;0.90;99.90;;;;;;5073127;28;20051;-73
2022/12/10 11:22:17;;;;;;;132.82;30.83;;;0.70;99.90;;;;;;5073362;28;20489;-73
2022/12/10 11:24:43;;;;;;;134.43;36.63;;;0.70;99.90;;;;;;5070252;28;20089;-73
2022/12/10 11:27:37;;;;;;;109.22;33.03;;;0.80;99.90;;;;;;5073582;28;20044;-74
2022/12/10 11:30:15;;;;;;;112.88;35.15;;;0.60;99.90;;;;;;5073276;28;20476;-74
2022/12/10 11:33:17;;;;;;;118.15;36.72;;;0.80;99.90;;;;;;5072669;28;20464;-73
2022/12/10 11:35:51;;;;;;;;;;;0.90;99.90;;;;;;5069053;28;20029;-74
2022/12/10 11:38:26;;;;;;;115.97;32.67;;;0.90;99.90;;;;;;5072421;28;19947;-74
2022/12/10 11:41:10;;;;;;;113.97;35.75;;;0.90;99.90;;;;;;5073505;28;20039;-72
2022/12/10 11:43:45;;;;;;;123.65;33.20;;;1.10;99.90;;;;;;5067630;28;20044;-72
2022/12/10 11:46:19;;;;;;;104.57;34.33;;;1.10;99.90;;;;;;5069919;28;20028;-73
2022/12/10 11:48:55;;;;;;;116.70;33.45;;;1.20;99.90;;;;;;5055308;28;20036;-73
2022/12/10 11:51:55;;;;;;;105.60;33.53;;;1.10;99.90;;;;;;5070737;28;20052;-74
2022/12/10 11:54:38;;;;;;;119.25;36.90;;;0.90;99.90;;;;;;5071056;28;20085;-74
2022/12/10 11:57:34;;;;;;;124.72;39.35;;;1.10;99.90;;;;;;5071851;28;20060;-74
2022/12/10 12:00:13;;;;;;;104.43;35.20;;;1.20;99.90;;;;;;5072837;28;20468;-74
2022/12/10 12:02:45;;;;;;;122.13;32.35;;;1.20;99.90;;;;;;5072283;28;20029;-74
2022/12/10 12:05:27;;;;;;;131.57;35.88;;;1.10;99.90;;;;;;5072649;28;20042;-74
2022/12/10 12:08:11;;;;;;;;;;;1.20;99.90;;;;;;5072386;28;20031;-74
2022/12/10 12:11:12;;;;;;;108.32;34.20;;;1.50;99.90;;;;;;5061347;28;19913;-74
2022/12/10 12:14:04;;;;;;;120.53;38.63;;;1.70;99.90;;;;;;5067890;28;20056;-74
2022/12/10 12:16:37;;;;;;;113.60;36.92;;;1.60;99.90;;;;;;5071345;28;20086;-74
2022/12/10 12:19:12;;;;;;;116.72;38.00;;;1.70;99.90;;;;;;5073004;28;20024;-74
2022/12/10 12:21:40;;;;;;;121.80;36.55;;;1.80;99.90;;;;;;5072678;28;20078;-74
2022/12/10 12:24:09;;;;;;;120.65;36.28;;;1.70;99.90;;;;;;5071259;28;20031;-74
2022/12/10 12:26:36;;;;;;;117.95;39.80;;;1.50;99.90;;;;;;5071376;28;20103;-73
2022/12/10 12:29:22;;;;;;;111.18;32.70;;;1.80;99.90;;;;;;5073089;28;20037;-74
2022/12/10 12:32:25;;;;;;;95.82;27.10;;;1.70;99.90;;;;;;5072478;28;20047;-74
2022/12/10 12:34:58;;;;;;;115.80;38.88;;;1.40;99.90;;;;;;5062038;28;20119;-74
2022/12/10 12:37:48;;;;;;;118.30;36.28;;;1.50;99.90;;;;;;5072672;28;20024;-72
2022/12/10 12:40:39;;;;;;;115.97;38.30;;;1.60;99.90;;;;;;5061285;28;20524;-73
2022/12/10 12:43:14;;;;;;;92.65;28.48;;;1.50;99.90;;;;;;5070522;28;20536;-73
2022/12/10 12:45:46;;;;;;;111.22;35.53;;;1.80;99.90;;;;;;5068548;28;20135;-73
2022/12/10 12:48:38;;;;;;;122.60;38.47;;;1.70;99.90;;;;;;5072406;28;20051;-73